sensor_id;sensor_type;location;lat;lon;timestamp;P1;durP1;ratioP1;P2;durP2;ratioP2
261;SDS011;114;48.260;10.988;2022-09-27T00:00:59;1.20;;;1.10;;
261;SDS011;114;48.260;10.988;2022-09-27T00:03:25;1.13;;;1.03;;
261;SDS011;114;48.260;10.988;2022-09-27T00:08:48;1.30;;;1.20;;
261;SDS011;114;48.260;10.988;2022-09-27T00:11:16;3.63;;;1.30;;
261;SDS011;114;48.260;10.988;2022-09-27T00:13:54;1.97;;;1.10;;
261;SDS011;114;48.260;10.988;2022-09-27T00:16:21;1.10;;;1.10;;
261;SDS011;114;48.260;10.988;2022-09-27T00:18:49;1.57;;;1.20;;
261;SDS011;114;48.260;10.988;2022-09-27T00:21:15;2.00;;;1.40;;
261;SDS011;114;48.260;10.988;2022-09-27T00:23:41;1.93;;;1.27;;
261;SDS011;114;48.260;10.988;2022-09-27T00:26:07;1.30;;;1.20;;
261;SDS011;114;48.260;10.988;2022-09-27T00:28:36;2.87;;;1.20;;
261;SDS011;114;48.260;10.988;2022-09-27T00:31:02;1.83;;;1.13;;
261;SDS011;114;48.260;10.988;2022-09-27T00:33:29;5.07;;;1.53;;
261;SDS011;114;48.260;10.988;2022-09-27T00:35:54;0.97;;;0.97;;
261;SDS011;114;48.260;10.988;2022-09-27T00:38:28;1.03;;;0.97;;
261;SDS011;114;48.260;10.988;2022-09-27T00:40:54;7.30;;;1.60;;
261;SDS011;114;48.260;10.988;2022-09-27T00:43:21;2.60;;;1.20;;
261;SDS011;114;48.260;10.988;2022-09-27T00:46:06;1.50;;;0.90;;
261;SDS011;114;48.260;10.988;2022-09-27T00:48:32;2.00;;;1.23;;
261;SDS011;114;48.260;10.988;2022-09-27T00:51:01;3.20;;;1.07;;
261;SDS011;114;48.260;10.988;2022-09-27T00:53:33;3.70;;;1.40;;
261;SDS011;114;48.260;10.988;2022-09-27T00:56:11;1.37;;;1.27;;
261;SDS011;114;48.260;10.988;2022-09-27T00:58:43;1.37;;;1.27;;
261;SDS011;114;48.260;10.988;2022-09-27T01:01:12;2.73;;;1.30;;
261;SDS011;114;48.260;10.988;2022-09-27T01:06:21;1.40;;;1.20;;
261;SDS011;114;48.260;10.988;2022-09-27T01:08:47;1.33;;;0.97;;
261;SDS011;114;48.260;10.988;2022-09-27T01:11:17;1.73;;;1.07;;
261;SDS011;114;48.260;10.988;2022-09-27T01:16:54;4.33;;;1.57;;
261;SDS011;114;48.260;10.988;2022-09-27T01:22:32;5.17;;;1.50;;
261;SDS011;114;48.260;10.988;2022-09-27T01:39:15;1.83;;;1.70;;
261;SDS011;114;48.260;10.988;2022-09-27T01:41:56;3.03;;;1.33;;
261;SDS011;114;48.260;10.988;2022-09-27T01:47:21;1.17;;;1.17;;
261;SDS011;114;48.260;10.988;2022-09-27T01:52:40;1.30;;;1.20;;
261;SDS011;114;48.260;10.988;2022-09-27T01:55:15;1.60;;;1.20;;
261;SDS011;114;48.260;10.988;2022-09-27T01:58:02;1.73;;;0.83;;
261;SDS011;114;48.260;10.988;2022-09-27T02:00:48;0.70;;;0.70;;
261;SDS011;114;48.260;10.988;2022-09-27T02:03:17;2.97;;;0.97;;
261;SDS011;114;48.260;10.988;2022-09-27T02:05:48;2.30;;;0.70;;
261;SDS011;114;48.260;10.988;2022-09-27T02:08:30;1.97;;;1.00;;
261;SDS011;114;48.260;10.988;2022-09-27T02:11:03;0.80;;;0.80;;
261;SDS011;114;48.260;10.988;2022-09-27T02:16:27;0.60;;;0.60;;
261;SDS011;114;48.260;10.988;2022-09-27T02:21:29;0.87;;;0.77;;
261;SDS011;114;48.260;10.988;2022-09-27T02:24:18;0.50;;;0.50;;
261;SDS011;114;48.260;10.988;2022-09-27T02:26:50;2.50;;;1.10;;
261;SDS011;114;48.260;10.988;2022-09-27T02:29:33;0.80;;;0.80;;
261;SDS011;114;48.260;10.988;2022-09-27T02:32:05;1.20;;;1.10;;
261;SDS011;114;48.260;10.988;2022-09-27T02:34:31;2.40;;;1.20;;
261;SDS011;114;48.260;10.988;2022-09-27T02:37:00;0.93;;;0.90;;
261;SDS011;114;48.260;10.988;2022-09-27T02:39:26;1.30;;;1.20;;
261;SDS011;114;48.260;10.988;2022-09-27T02:41:52;1.23;;;0.90;;
261;SDS011;114;48.260;10.988;2022-09-27T02:44:22;0.90;;;0.80;;
261;SDS011;114;48.260;10.988;2022-09-27T02:47:01;1.13;;;1.03;;
261;SDS011;114;48.260;10.988;2022-09-27T02:52:22;1.37;;;1.27;;
261;SDS011;114;48.260;10.988;2022-09-27T02:55:17;1.40;;;1.30;;
261;SDS011;114;48.260;10.988;2022-09-27T03:00:39;1.60;;;0.90;;
261;SDS011;114;48.260;10.988;2022-09-27T03:03:27;1.10;;;1.10;;
261;SDS011;114;48.260;10.988;2022-09-27T03:06:12;2.20;;;0.60;;
261;SDS011;114;48.260;10.988;2022-09-27T03:08:40;1.30;;;1.30;;
261;SDS011;114;48.260;10.988;2022-09-27T03:11:07;4.40;;;0.80;;
261;SDS011;114;48.260;10.988;2022-09-27T03:13:33;1.40;;;0.90;;
261;SDS011;114;48.260;10.988;2022-09-27T03:16:02;1.93;;;0.97;;
261;SDS011;114;48.260;10.988;2022-09-27T03:18:32;1.17;;;1.07;;
261;SDS011;114;48.260;10.988;2022-09-27T03:20:58;1.53;;;1.00;;
261;SDS011;114;48.260;10.988;2022-09-27T03:23:25;1.53;;;1.17;;
261;SDS011;114;48.260;10.988;2022-09-27T03:25:51;1.17;;;1.07;;
261;SDS011;114;48.260;10.988;2022-09-27T03:28:17;1.00;;;1.00;;
261;SDS011;114;48.260;10.988;2022-09-27T03:30:44;7.50;;;0.93;;
261;SDS011;114;48.260;10.988;2022-09-27T03:33:11;1.23;;;0.60;;
261;SDS011;114;48.260;10.988;2022-09-27T03:35:37;1.90;;;1.20;;
261;SDS011;114;48.260;10.988;2022-09-27T03:38:03;1.93;;;1.10;;
261;SDS011;114;48.260;10.988;2022-09-27T03:40:30;1.07;;;0.97;;
261;SDS011;114;48.260;10.988;2022-09-27T03:42:56;2.63;;;0.83;;
261;SDS011;114;48.260;10.988;2022-09-27T03:45:21;0.90;;;0.90;;
261;SDS011;114;48.260;10.988;2022-09-27T03:47:47;3.07;;;1.00;;
261;SDS011;114;48.260;10.988;2022-09-27T03:50:13;1.27;;;1.17;;
261;SDS011;114;48.260;10.988;2022-09-27T03:52:40;1.47;;;1.00;;
261;SDS011;114;48.260;10.988;2022-09-27T03:55:07;2.40;;;1.03;;
261;SDS011;114;48.260;10.988;2022-09-27T03:57:34;6.30;;;0.80;;
261;SDS011;114;48.260;10.988;2022-09-27T04:00:00;0.70;;;0.70;;
261;SDS011;114;48.260;10.988;2022-09-27T04:02:27;0.83;;;0.83;;
261;SDS011;114;48.260;10.988;2022-09-27T04:04:53;0.63;;;0.63;;
261;SDS011;114;48.260;10.988;2022-09-27T04:07:19;0.70;;;0.70;;
261;SDS011;114;48.260;10.988;2022-09-27T04:09:44;1.03;;;0.57;;
261;SDS011;114;48.260;10.988;2022-09-27T04:12:11;0.50;;;0.50;;
261;SDS011;114;48.260;10.988;2022-09-27T04:14:37;1.63;;;0.90;;
261;SDS011;114;48.260;10.988;2022-09-27T04:17:03;0.73;;;0.60;;
261;SDS011;114;48.260;10.988;2022-09-27T04:19:29;0.50;;;0.50;;
261;SDS011;114;48.260;10.988;2022-09-27T04:21:55;0.60;;;0.60;;
261;SDS011;114;48.260;10.988;2022-09-27T04:24:20;0.80;;;0.50;;
261;SDS011;114;48.260;10.988;2022-09-27T04:26:46;0.93;;;0.80;;
261;SDS011;114;48.260;10.988;2022-09-27T04:29:13;3.47;;;0.90;;
261;SDS011;114;48.260;10.988;2022-09-27T04:31:40;0.80;;;0.80;;
261;SDS011;114;48.260;10.988;2022-09-27T04:34:11;0.80;;;0.73;;
261;SDS011;114;48.260;10.988;2022-09-27T04:36:37;0.50;;;0.50;;
261;SDS011;114;48.260;10.988;2022-09-27T04:39:03;0.60;;;0.60;;
261;SDS011;114;48.260;10.988;2022-09-27T04:41:33;0.50;;;0.40;;
261;SDS011;114;48.260;10.988;2022-09-27T04:44:00;1.30;;;0.50;;
261;SDS011;114;48.260;10.988;2022-09-27T04:46:26;0.80;;;0.60;;
261;SDS011;114;48.260;10.988;2022-09-27T04:48:59;0.97;;;0.57;;
261;SDS011;114;48.260;10.988;2022-09-27T04:51:25;2.53;;;0.50;;
261;SDS011;114;48.260;10.988;2022-09-27T04:53:51;0.80;;;0.50;;
261;SDS011;114;48.260;10.988;2022-09-27T04:56:17;0.97;;;0.70;;
261;SDS011;114;48.260;10.988;2022-09-27T04:58:42;1.10;;;0.60;;
261;SDS011;114;48.260;10.988;2022-09-27T05:01:08;9.90;;;0.70;;
261;SDS011;114;48.260;10.988;2022-09-27T05:03:37;0.87;;;0.60;;
261;SDS011;114;48.260;10.988;2022-09-27T05:06:03;0.60;;;0.60;;
261;SDS011;114;48.260;10.988;2022-09-27T05:08:29;1.00;;;0.50;;
261;SDS011;114;48.260;10.988;2022-09-27T05:10:55;5.27;;;0.60;;
261;SDS011;114;48.260;10.988;2022-09-27T05:13:21;0.70;;;0.63;;
261;SDS011;114;48.260;10.988;2022-09-27T05:15:47;1.50;;;0.60;;
261;SDS011;114;48.260;10.988;2022-09-27T05:18:12;0.50;;;0.50;;
261;SDS011;114;48.260;10.988;2022-09-27T05:20:38;1.73;;;0.60;;
261;SDS011;114;48.260;10.988;2022-09-27T05:23:04;0.50;;;0.40;;
261;SDS011;114;48.260;10.988;2022-09-27T05:25:30;0.47;;;0.47;;
261;SDS011;114;48.260;10.988;2022-09-27T05:27:56;2.40;;;0.40;;
261;SDS011;114;48.260;10.988;2022-09-27T05:30:23;0.50;;;0.40;;
261;SDS011;114;48.260;10.988;2022-09-27T05:32:50;0.93;;;0.50;;
261;SDS011;114;48.260;10.988;2022-09-27T05:35:16;0.70;;;0.40;;
261;SDS011;114;48.260;10.988;2022-09-27T05:37:49;0.53;;;0.53;;
261;SDS011;114;48.260;10.988;2022-09-27T05:40:16;6.00;;;0.80;;
261;SDS011;114;48.260;10.988;2022-09-27T05:42:45;0.57;;;0.57;;
261;SDS011;114;48.260;10.988;2022-09-27T05:45:15;1.13;;;0.60;;
261;SDS011;114;48.260;10.988;2022-09-27T05:47:41;1.33;;;0.40;;
261;SDS011;114;48.260;10.988;2022-09-27T05:50:07;0.80;;;0.53;;
261;SDS011;114;48.260;10.988;2022-09-27T05:52:33;2.10;;;0.50;;
261;SDS011;114;48.260;10.988;2022-09-27T05:54:59;0.63;;;0.63;;
261;SDS011;114;48.260;10.988;2022-09-27T05:57:25;0.50;;;0.47;;
261;SDS011;114;48.260;10.988;2022-09-27T05:59:50;0.90;;;0.57;;
261;SDS011;114;48.260;10.988;2022-09-27T06:02:16;0.63;;;0.50;;
261;SDS011;114;48.260;10.988;2022-09-27T06:04:42;0.67;;;0.47;;
261;SDS011;114;48.260;10.988;2022-09-27T06:07:08;2.90;;;0.93;;
261;SDS011;114;48.260;10.988;2022-09-27T06:09:34;0.70;;;0.70;;
261;SDS011;114;48.260;10.988;2022-09-27T06:12:00;1.87;;;0.80;;
261;SDS011;114;48.260;10.988;2022-09-27T06:14:26;1.73;;;0.47;;
261;SDS011;114;48.260;10.988;2022-09-27T06:16:54;1.37;;;0.70;;
261;SDS011;114;48.260;10.988;2022-09-27T06:19:20;0.40;;;0.37;;
261;SDS011;114;48.260;10.988;2022-09-27T06:21:48;1.43;;;1.33;;
261;SDS011;114;48.260;10.988;2022-09-27T06:24:15;2.17;;;1.50;;
261;SDS011;114;48.260;10.988;2022-09-27T06:26:40;1.37;;;0.90;;
261;SDS011;114;48.260;10.988;2022-09-27T06:29:07;1.53;;;0.83;;
261;SDS011;114;48.260;10.988;2022-09-27T06:31:32;1.50;;;1.40;;
261;SDS011;114;48.260;10.988;2022-09-27T06:33:58;2.30;;;0.83;;
261;SDS011;114;48.260;10.988;2022-09-27T06:36:24;1.90;;;0.70;;
261;SDS011;114;48.260;10.988;2022-09-27T06:38:50;1.83;;;1.63;;
261;SDS011;114;48.260;10.988;2022-09-27T06:41:15;2.00;;;1.40;;
261;SDS011;114;48.260;10.988;2022-09-27T06:43:41;2.20;;;1.00;;
261;SDS011;114;48.260;10.988;2022-09-27T06:46:07;2.60;;;0.93;;
261;SDS011;114;48.260;10.988;2022-09-27T06:48:33;2.30;;;1.20;;
261;SDS011;114;48.260;10.988;2022-09-27T06:51:01;1.60;;;0.80;;
261;SDS011;114;48.260;10.988;2022-09-27T06:53:27;1.97;;;1.70;;
261;SDS011;114;48.260;10.988;2022-09-27T06:55:57;4.67;;;0.97;;
261;SDS011;114;48.260;10.988;2022-09-27T06:58:30;5.07;;;1.70;;
261;SDS011;114;48.260;10.988;2022-09-27T07:01:14;1.43;;;0.90;;
261;SDS011;114;48.260;10.988;2022-09-27T07:03:41;2.40;;;0.70;;
261;SDS011;114;48.260;10.988;2022-09-27T07:06:14;0.93;;;0.87;;
261;SDS011;114;48.260;10.988;2022-09-27T07:08:50;4.43;;;1.77;;
261;SDS011;114;48.260;10.988;2022-09-27T07:11:16;4.53;;;0.90;;
261;SDS011;114;48.260;10.988;2022-09-27T07:13:43;1.73;;;0.80;;
261;SDS011;114;48.260;10.988;2022-09-27T07:16:14;9.20;;;2.20;;
261;SDS011;114;48.260;10.988;2022-09-27T07:18:40;7.00;;;1.40;;
261;SDS011;114;48.260;10.988;2022-09-27T07:21:06;2.67;;;0.97;;
261;SDS011;114;48.260;10.988;2022-09-27T07:23:36;1.43;;;0.97;;
261;SDS011;114;48.260;10.988;2022-09-27T07:26:03;0.77;;;0.63;;
261;SDS011;114;48.260;10.988;2022-09-27T07:28:31;2.70;;;0.60;;
261;SDS011;114;48.260;10.988;2022-09-27T07:30:57;2.20;;;0.67;;
261;SDS011;114;48.260;10.988;2022-09-27T07:33:26;1.40;;;0.60;;
261;SDS011;114;48.260;10.988;2022-09-27T07:35:53;2.10;;;0.50;;
261;SDS011;114;48.260;10.988;2022-09-27T07:38:18;1.00;;;0.90;;
261;SDS011;114;48.260;10.988;2022-09-27T07:40:44;3.67;;;0.47;;
261;SDS011;114;48.260;10.988;2022-09-27T07:43:10;0.40;;;0.30;;
261;SDS011;114;48.260;10.988;2022-09-27T07:45:37;0.37;;;0.30;;
261;SDS011;114;48.260;10.988;2022-09-27T07:48:07;4.50;;;0.80;;
261;SDS011;114;48.260;10.988;2022-09-27T07:50:35;1.67;;;0.60;;
261;SDS011;114;48.260;10.988;2022-09-27T07:53:05;1.10;;;0.47;;
261;SDS011;114;48.260;10.988;2022-09-27T07:55:31;1.17;;;0.40;;
261;SDS011;114;48.260;10.988;2022-09-27T07:58:03;1.13;;;0.30;;
261;SDS011;114;48.260;10.988;2022-09-27T08:00:31;0.67;;;0.40;;
261;SDS011;114;48.260;10.988;2022-09-27T08:02:57;0.93;;;0.50;;
261;SDS011;114;48.260;10.988;2022-09-27T08:05:27;3.80;;;0.40;;
261;SDS011;114;48.260;10.988;2022-09-27T08:07:53;0.60;;;0.40;;
261;SDS011;114;48.260;10.988;2022-09-27T08:10:20;0.60;;;0.50;;
261;SDS011;114;48.260;10.988;2022-09-27T08:12:49;4.43;;;0.70;;
261;SDS011;114;48.260;10.988;2022-09-27T08:15:16;0.73;;;0.50;;
261;SDS011;114;48.260;10.988;2022-09-27T08:17:44;2.27;;;0.30;;
261;SDS011;114;48.260;10.988;2022-09-27T08:20:10;0.70;;;0.60;;
261;SDS011;114;48.260;10.988;2022-09-27T08:22:39;0.70;;;0.40;;
261;SDS011;114;48.260;10.988;2022-09-27T08:25:06;0.50;;;0.30;;
261;SDS011;114;48.260;10.988;2022-09-27T08:27:32;0.50;;;0.40;;
261;SDS011;114;48.260;10.988;2022-09-27T08:29:58;0.63;;;0.40;;
261;SDS011;114;48.260;10.988;2022-09-27T08:32:24;0.50;;;0.40;;
261;SDS011;114;48.260;10.988;2022-09-27T08:34:52;0.90;;;0.43;;
261;SDS011;114;48.260;10.988;2022-09-27T08:37:18;2.33;;;0.70;;
261;SDS011;114;48.260;10.988;2022-09-27T08:39:45;2.00;;;0.60;;
261;SDS011;114;48.260;10.988;2022-09-27T08:45:02;4.87;;;0.50;;
261;SDS011;114;48.260;10.988;2022-09-27T08:47:43;0.60;;;0.50;;
261;SDS011;114;48.260;10.988;2022-09-27T08:58:09;0.70;;;0.50;;
261;SDS011;114;48.260;10.988;2022-09-27T09:01:03;2.67;;;0.80;;
261;SDS011;114;48.260;10.988;2022-09-27T09:03:32;1.07;;;0.30;;
261;SDS011;114;48.260;10.988;2022-09-27T09:08:52;7.97;;;2.03;;
261;SDS011;114;48.260;10.988;2022-09-27T09:17:42;0.40;;;0.30;;
261;SDS011;114;48.260;10.988;2022-09-27T09:20:18;0.57;;;0.50;;
261;SDS011;114;48.260;10.988;2022-09-27T09:22:55;0.70;;;0.50;;
261;SDS011;114;48.260;10.988;2022-09-27T09:31:24;1.07;;;0.60;;
261;SDS011;114;48.260;10.988;2022-09-27T09:34:08;0.40;;;0.30;;
261;SDS011;114;48.260;10.988;2022-09-27T09:36:59;1.97;;;0.50;;
261;SDS011;114;48.260;10.988;2022-09-27T09:39:32;0.30;;;0.20;;
261;SDS011;114;48.260;10.988;2022-09-27T09:42:12;1.43;;;0.30;;
261;SDS011;114;48.260;10.988;2022-09-27T09:47:36;0.40;;;0.30;;
261;SDS011;114;48.260;10.988;2022-09-27T09:50:52;0.40;;;0.30;;
261;SDS011;114;48.260;10.988;2022-09-27T09:52:58;3.83;;;0.30;;
261;SDS011;114;48.260;10.988;2022-09-27T09:55:36;0.40;;;0.30;;
261;SDS011;114;48.260;10.988;2022-09-27T10:00:47;0.77;;;0.30;;
261;SDS011;114;48.260;10.988;2022-09-27T10:03:16;0.40;;;0.30;;
261;SDS011;114;48.260;10.988;2022-09-27T10:05:42;1.10;;;0.70;;
261;SDS011;114;48.260;10.988;2022-09-27T10:08:18;0.40;;;0.30;;
261;SDS011;114;48.260;10.988;2022-09-27T10:10:45;3.90;;;1.10;;
261;SDS011;114;48.260;10.988;2022-09-27T10:13:14;0.50;;;0.50;;
261;SDS011;114;48.260;10.988;2022-09-27T10:15:41;0.93;;;0.30;;
261;SDS011;114;48.260;10.988;2022-09-27T10:18:14;0.53;;;0.33;;
261;SDS011;114;48.260;10.988;2022-09-27T10:20:54;0.60;;;0.40;;
261;SDS011;114;48.260;10.988;2022-09-27T10:23:23;0.50;;;0.40;;
261;SDS011;114;48.260;10.988;2022-09-27T10:25:56;0.67;;;0.33;;
261;SDS011;114;48.260;10.988;2022-09-27T10:31:04;0.90;;;0.40;;
261;SDS011;114;48.260;10.988;2022-09-27T10:33:39;1.50;;;0.30;;
261;SDS011;114;48.260;10.988;2022-09-27T10:36:24;0.93;;;0.40;;
261;SDS011;114;48.260;10.988;2022-09-27T10:38:55;1.47;;;0.47;;
261;SDS011;114;48.260;10.988;2022-09-27T10:41:34;1.63;;;0.40;;
261;SDS011;114;48.260;10.988;2022-09-27T10:46:57;1.33;;;0.37;;
261;SDS011;114;48.260;10.988;2022-09-27T10:49:34;1.33;;;0.50;;
261;SDS011;114;48.260;10.988;2022-09-27T10:52:14;0.87;;;0.40;;
261;SDS011;114;48.260;10.988;2022-09-27T10:54:50;1.00;;;0.50;;
261;SDS011;114;48.260;10.988;2022-09-27T10:57:39;1.07;;;0.50;;
261;SDS011;114;48.260;10.988;2022-09-27T11:00:22;1.13;;;0.50;;
261;SDS011;114;48.260;10.988;2022-09-27T11:02:53;1.43;;;0.40;;
261;SDS011;114;48.260;10.988;2022-09-27T11:07:56;0.77;;;0.50;;
261;SDS011;114;48.260;10.988;2022-09-27T11:13:05;3.73;;;0.90;;
261;SDS011;114;48.260;10.988;2022-09-27T11:27:21;1.33;;;1.20;;
261;SDS011;114;48.260;10.988;2022-09-27T11:30:08;2.60;;;1.20;;
261;SDS011;114;48.260;10.988;2022-09-27T11:41:08;3.00;;;0.90;;
261;SDS011;114;48.260;10.988;2022-09-27T11:46:31;2.10;;;0.60;;
261;SDS011;114;48.260;10.988;2022-09-27T12:00:22;1.87;;;0.67;;
261;SDS011;114;48.260;10.988;2022-09-27T12:05:32;1.03;;;0.50;;
261;SDS011;114;48.260;10.988;2022-09-27T12:10:30;2.03;;;0.70;;
261;SDS011;114;48.260;10.988;2022-09-27T12:12:56;0.77;;;0.57;;
261;SDS011;114;48.260;10.988;2022-09-27T12:15:24;2.13;;;0.47;;
261;SDS011;114;48.260;10.988;2022-09-27T12:18:01;0.60;;;0.60;;
261;SDS011;114;48.260;10.988;2022-09-27T12:20:31;0.67;;;0.40;;
261;SDS011;114;48.260;10.988;2022-09-27T12:23:04;1.27;;;0.50;;
261;SDS011;114;48.260;10.988;2022-09-27T12:25:39;0.50;;;0.40;;
261;SDS011;114;48.260;10.988;2022-09-27T12:30:55;1.33;;;0.57;;
261;SDS011;114;48.260;10.988;2022-09-27T12:33:35;1.07;;;0.70;;
261;SDS011;114;48.260;10.988;2022-09-27T12:36:07;1.37;;;0.47;;
261;SDS011;114;48.260;10.988;2022-09-27T12:38:40;11.07;;;0.80;;
261;SDS011;114;48.260;10.988;2022-09-27T12:41:15;1.33;;;0.60;;
261;SDS011;114;48.260;10.988;2022-09-27T12:43:43;3.27;;;0.70;;
261;SDS011;114;48.260;10.988;2022-09-27T12:49:26;1.30;;;0.80;;
261;SDS011;114;48.260;10.988;2022-09-27T12:52:08;1.00;;;0.50;;
261;SDS011;114;48.260;10.988;2022-09-27T13:00:10;0.87;;;0.40;;
261;SDS011;114;48.260;10.988;2022-09-27T13:14:19;3.60;;;0.70;;
261;SDS011;114;48.260;10.988;2022-09-27T13:16:48;3.03;;;0.57;;
261;SDS011;114;48.260;10.988;2022-09-27T13:21:59;2.67;;;0.70;;
261;SDS011;114;48.260;10.988;2022-09-27T13:27:52;0.70;;;0.50;;
261;SDS011;114;48.260;10.988;2022-09-27T13:32:33;2.10;;;0.50;;
261;SDS011;114;48.260;10.988;2022-09-27T13:37:47;1.47;;;0.43;;
261;SDS011;114;48.260;10.988;2022-09-27T13:45:35;1.53;;;0.60;;
261;SDS011;114;48.260;10.988;2022-09-27T13:48:16;0.87;;;0.80;;
261;SDS011;114;48.260;10.988;2022-09-27T13:53:31;0.60;;;0.40;;
261;SDS011;114;48.260;10.988;2022-09-27T13:56:01;2.70;;;0.60;;
261;SDS011;114;48.260;10.988;2022-09-27T14:01:14;1.53;;;0.40;;
261;SDS011;114;48.260;10.988;2022-09-27T14:03:54;1.10;;;0.60;;
261;SDS011;114;48.260;10.988;2022-09-27T14:06:40;0.60;;;0.40;;
261;SDS011;114;48.260;10.988;2022-09-27T14:09:14;1.00;;;0.50;;
261;SDS011;114;48.260;10.988;2022-09-27T14:11:50;0.80;;;0.40;;
261;SDS011;114;48.260;10.988;2022-09-27T14:14:21;0.93;;;0.50;;
261;SDS011;114;48.260;10.988;2022-09-27T14:16:50;1.13;;;0.60;;
261;SDS011;114;48.260;10.988;2022-09-27T14:19:17;0.50;;;0.40;;
261;SDS011;114;48.260;10.988;2022-09-27T14:21:45;1.63;;;0.90;;
261;SDS011;114;48.260;10.988;2022-09-27T14:26:47;1.53;;;0.70;;
261;SDS011;114;48.260;10.988;2022-09-27T14:29:17;0.70;;;0.70;;
261;SDS011;114;48.260;10.988;2022-09-27T14:31:45;0.60;;;0.50;;
261;SDS011;114;48.260;10.988;2022-09-27T14:34:27;6.63;;;3.23;;
261;SDS011;114;48.260;10.988;2022-09-27T14:36:53;2.47;;;0.73;;
261;SDS011;114;48.260;10.988;2022-09-27T14:39:40;2.33;;;0.70;;
261;SDS011;114;48.260;10.988;2022-09-27T14:42:16;3.00;;;0.87;;
261;SDS011;114;48.260;10.988;2022-09-27T14:44:48;5.70;;;0.90;;
261;SDS011;114;48.260;10.988;2022-09-27T14:47:19;3.33;;;2.23;;
261;SDS011;114;48.260;10.988;2022-09-27T14:49:53;4.93;;;1.40;;
261;SDS011;114;48.260;10.988;2022-09-27T14:52:22;2.27;;;0.80;;
261;SDS011;114;48.260;10.988;2022-09-27T14:54:54;2.63;;;1.40;;
261;SDS011;114;48.260;10.988;2022-09-27T14:57:22;3.47;;;2.23;;
261;SDS011;114;48.260;10.988;2022-09-27T14:59:51;2.80;;;1.17;;
261;SDS011;114;48.260;10.988;2022-09-27T15:02:18;2.93;;;1.40;;
261;SDS011;114;48.260;10.988;2022-09-27T15:04:46;3.43;;;1.03;;
261;SDS011;114;48.260;10.988;2022-09-27T15:07:15;1.23;;;0.87;;
261;SDS011;114;48.260;10.988;2022-09-27T15:09:46;1.93;;;1.83;;
261;SDS011;114;48.260;10.988;2022-09-27T15:12:17;5.13;;;1.03;;
261;SDS011;114;48.260;10.988;2022-09-27T15:14:49;1.77;;;0.90;;
261;SDS011;114;48.260;10.988;2022-09-27T15:17:16;2.10;;;1.00;;
261;SDS011;114;48.260;10.988;2022-09-27T15:19:57;1.73;;;1.00;;
261;SDS011;114;48.260;10.988;2022-09-27T15:22:49;4.47;;;1.03;;
261;SDS011;114;48.260;10.988;2022-09-27T15:30:40;1.83;;;1.03;;
261;SDS011;114;48.260;10.988;2022-09-27T15:33:19;0.87;;;0.87;;
261;SDS011;114;48.260;10.988;2022-09-27T15:35:48;0.70;;;0.70;;
261;SDS011;114;48.260;10.988;2022-09-27T15:38:21;0.83;;;0.83;;
261;SDS011;114;48.260;10.988;2022-09-27T15:43:21;1.20;;;1.10;;
261;SDS011;114;48.260;10.988;2022-09-27T15:45:51;3.10;;;1.40;;
261;SDS011;114;48.260;10.988;2022-09-27T15:48:20;1.70;;;1.20;;
261;SDS011;114;48.260;10.988;2022-09-27T15:50:46;1.77;;;1.10;;
261;SDS011;114;48.260;10.988;2022-09-27T15:53:46;0.80;;;0.70;;
261;SDS011;114;48.260;10.988;2022-09-27T15:56:09;1.67;;;0.93;;
261;SDS011;114;48.260;10.988;2022-09-27T15:58:38;10.63;;;1.13;;
261;SDS011;114;48.260;10.988;2022-09-27T16:01:04;1.40;;;1.30;;
261;SDS011;114;48.260;10.988;2022-09-27T16:03:30;2.93;;;2.73;;
261;SDS011;114;48.260;10.988;2022-09-27T16:05:57;3.00;;;2.80;;
261;SDS011;114;48.260;10.988;2022-09-27T16:08:25;3.00;;;2.80;;
261;SDS011;114;48.260;10.988;2022-09-27T16:10:52;5.27;;;2.67;;
261;SDS011;114;48.260;10.988;2022-09-27T16:13:19;5.37;;;3.10;;
261;SDS011;114;48.260;10.988;2022-09-27T16:15:46;2.90;;;1.40;;
261;SDS011;114;48.260;10.988;2022-09-27T16:18:12;9.93;;;5.07;;
261;SDS011;114;48.260;10.988;2022-09-27T16:20:38;8.87;;;2.80;;
261;SDS011;114;48.260;10.988;2022-09-27T16:23:04;5.80;;;2.47;;
261;SDS011;114;48.260;10.988;2022-09-27T16:25:30;3.10;;;2.40;;
261;SDS011;114;48.260;10.988;2022-09-27T16:27:57;5.33;;;2.27;;
261;SDS011;114;48.260;10.988;2022-09-27T16:30:24;2.20;;;2.10;;
261;SDS011;114;48.260;10.988;2022-09-27T16:32:49;2.87;;;2.67;;
261;SDS011;114;48.260;10.988;2022-09-27T16:35:16;2.87;;;1.63;;
261;SDS011;114;48.260;10.988;2022-09-27T16:37:45;2.40;;;2.10;;
261;SDS011;114;48.260;10.988;2022-09-27T16:40:11;12.13;;;7.13;;
261;SDS011;114;48.260;10.988;2022-09-27T16:42:39;2.10;;;2.00;;
261;SDS011;114;48.260;10.988;2022-09-27T16:45:06;3.10;;;2.20;;
261;SDS011;114;48.260;10.988;2022-09-27T16:47:32;1.60;;;1.37;;
261;SDS011;114;48.260;10.988;2022-09-27T16:49:59;4.00;;;2.27;;
261;SDS011;114;48.260;10.988;2022-09-27T16:52:43;3.63;;;2.30;;
261;SDS011;114;48.260;10.988;2022-09-27T16:55:14;1.50;;;1.40;;
261;SDS011;114;48.260;10.988;2022-09-27T16:57:44;2.17;;;1.50;;
261;SDS011;114;48.260;10.988;2022-09-27T17:00:11;2.43;;;0.83;;
261;SDS011;114;48.260;10.988;2022-09-27T17:02:37;1.33;;;1.00;;
261;SDS011;114;48.260;10.988;2022-09-27T17:05:03;1.20;;;0.60;;
261;SDS011;114;48.260;10.988;2022-09-27T17:07:30;3.77;;;1.00;;
261;SDS011;114;48.260;10.988;2022-09-27T17:09:56;4.33;;;1.27;;
261;SDS011;114;48.260;10.988;2022-09-27T17:12:22;2.50;;;1.10;;
261;SDS011;114;48.260;10.988;2022-09-27T17:14:48;0.73;;;0.73;;
261;SDS011;114;48.260;10.988;2022-09-27T17:17:14;0.90;;;0.80;;
261;SDS011;114;48.260;10.988;2022-09-27T17:19:43;1.13;;;1.13;;
261;SDS011;114;48.260;10.988;2022-09-27T17:22:09;3.70;;;1.07;;
261;SDS011;114;48.260;10.988;2022-09-27T17:24:35;1.50;;;1.40;;
261;SDS011;114;48.260;10.988;2022-09-27T17:27:01;2.07;;;1.97;;
261;SDS011;114;48.260;10.988;2022-09-27T17:29:26;5.10;;;1.80;;
261;SDS011;114;48.260;10.988;2022-09-27T17:31:52;13.60;;;7.07;;
261;SDS011;114;48.260;10.988;2022-09-27T17:34:18;9.93;;;4.80;;
261;SDS011;114;48.260;10.988;2022-09-27T17:36:44;11.80;;;5.17;;
261;SDS011;114;48.260;10.988;2022-09-27T17:39:16;3.30;;;2.67;;
261;SDS011;114;48.260;10.988;2022-09-27T17:41:45;2.93;;;2.70;;
261;SDS011;114;48.260;10.988;2022-09-27T17:44:15;2.23;;;2.03;;
261;SDS011;114;48.260;10.988;2022-09-27T17:46:42;2.10;;;1.20;;
261;SDS011;114;48.260;10.988;2022-09-27T17:49:09;4.70;;;4.30;;
261;SDS011;114;48.260;10.988;2022-09-27T17:51:54;3.53;;;3.23;;
261;SDS011;114;48.260;10.988;2022-09-27T17:54:20;5.87;;;4.87;;
261;SDS011;114;48.260;10.988;2022-09-27T17:56:48;2.70;;;2.40;;
261;SDS011;114;48.260;10.988;2022-09-27T17:59:16;6.30;;;3.90;;
261;SDS011;114;48.260;10.988;2022-09-27T18:01:43;3.23;;;2.10;;
261;SDS011;114;48.260;10.988;2022-09-27T18:04:11;2.00;;;1.90;;
261;SDS011;114;48.260;10.988;2022-09-27T18:06:45;7.50;;;2.83;;
261;SDS011;114;48.260;10.988;2022-09-27T18:09:12;2.90;;;2.70;;
261;SDS011;114;48.260;10.988;2022-09-27T18:11:39;2.63;;;2.00;;
261;SDS011;114;48.260;10.988;2022-09-27T18:14:08;3.37;;;3.07;;
261;SDS011;114;48.260;10.988;2022-09-27T18:16:36;1.50;;;1.40;;
261;SDS011;114;48.260;10.988;2022-09-27T18:19:05;4.10;;;1.57;;
261;SDS011;114;48.260;10.988;2022-09-27T18:21:32;0.70;;;0.70;;
261;SDS011;114;48.260;10.988;2022-09-27T18:23:59;1.77;;;0.93;;
261;SDS011;114;48.260;10.988;2022-09-27T18:26:26;1.43;;;1.33;;
261;SDS011;114;48.260;10.988;2022-09-27T18:29:03;1.63;;;1.03;;
261;SDS011;114;48.260;10.988;2022-09-27T18:31:30;5.50;;;1.60;;
261;SDS011;114;48.260;10.988;2022-09-27T18:33:56;0.90;;;0.90;;
261;SDS011;114;48.260;10.988;2022-09-27T18:36:23;1.27;;;0.80;;
261;SDS011;114;48.260;10.988;2022-09-27T18:38:57;1.77;;;0.67;;
261;SDS011;114;48.260;10.988;2022-09-27T18:41:26;2.53;;;1.37;;
261;SDS011;114;48.260;10.988;2022-09-27T18:43:57;1.57;;;1.20;;
261;SDS011;114;48.260;10.988;2022-09-27T18:46:35;1.23;;;1.10;;